Time;durP1;ratioP1;P1;durP2;ratioP2;P2;SDS_P1;SDS_P2;PMS_P1;PMS_P2;Temp;Humidity;BMP_temperature;BMP_pressure;BME280_temperature;BME280_humidity;BME280_pressure;Samples;Min_cycle;Max_cycle;Signal;HPM_P1;HPM_P2
2022/05/25 00:01:26;;;;;;;3.85;2.70;;;;;;;;;;5052910;28;20540;-56
2022/05/25 00:03:52;;;;;;;4.68;2.70;;;;;;;;;;5069902;28;20391;-57
2022/05/25 00:06:18;;;;;;;3.58;2.80;;;;;;;;;;5051473;28;20461;-56
2022/05/25 00:08:44;;;;;;;4.70;2.60;;;;;;;;;;5050880;28;20777;-54
2022/05/25 00:11:10;;;;;;;6.82;3.00;;;;;;;;;;5050856;28;20392;-56
2022/05/25 00:13:37;;;;;;;4.53;2.90;;;;;;;;;;5051481;28;20629;-53
2022/05/25 00:16:03;;;;;;;4.57;2.97;;;;;;;;;;5052175;28;20471;-58
2022/05/25 00:18:30;;;;;;;3.45;3.08;;;;;;;;;;5052567;28;20408;-56
2022/05/25 00:20:56;;;;;;;4.50;3.37;;;;;;;;;;5069442;28;20885;-56
2022/05/25 00:23:23;;;;;;;3.92;3.03;;;;;;;;;;5070485;28;20372;-55
2022/05/25 00:25:49;;;;;;;5.85;3.17;;;;;;;;;;5050740;28;20983;-56
2022/05/25 00:28:16;;;;;;;3.40;3.10;;;;;;;;;;5068536;28;20384;-54
2022/05/25 00:30:43;;;;;;;4.80;3.30;;;;;;;;;;5068286;28;20386;-54
2022/05/25 00:33:10;;;;;;;5.50;3.05;;;;;;;;;;5051119;28;20396;-56
2022/05/25 00:35:36;;;;;;;3.88;3.47;;;;;;;;;;5049956;28;20621;-55
2022/05/25 00:38:04;;;;;;;4.45;3.17;;;;;;;;;;5068353;28;20418;-57
2022/05/25 00:40:36;;;;;;;4.07;3.10;;;;;;;;;;5053826;28;20388;-55
2022/05/25 00:43:02;;;;;;;4.55;3.40;;;;;;;;;;5071900;28;20379;-54
2022/05/25 00:45:30;;;;;;;4.47;3.45;;;;;;;;;;5055110;28;20427;-58
2022/05/25 00:47:56;;;;;;;6.03;3.63;;;;;;;;;;5054670;28;20384;-57
2022/05/25 00:50:24;;;;;;;3.97;3.58;;;;;;;;;;5071629;28;20408;-56
2022/05/25 00:52:51;;;;;;;4.68;3.72;;;;;;;;;;5051833;28;20383;-55
2022/05/25 00:55:26;;;;;;;4.72;3.50;;;;;;;;;;5051967;28;20446;-57
2022/05/25 00:57:54;;;;;;;6.22;3.58;;;;;;;;;;5051555;28;20569;-57
2022/05/25 01:00:22;;;;;;;4.75;3.78;;;;;;;;;;5049005;28;20474;-57
2022/05/25 01:02:50;;;;;;;4.40;3.53;;;;;;;;;;5048004;28;20645;-57
2022/05/25 01:05:19;;;;;;;6.03;3.55;;;;;;;;;;5050034;28;20395;-58
2022/05/25 01:07:45;;;;;;;5.80;3.53;;;;;;;;;;5050388;28;20458;-56
2022/05/25 01:10:22;;;;;;;3.97;3.20;;;;;;;;;;5051075;28;20383;-53
2022/05/25 01:12:58;;;;;;;5.57;3.58;;;;;;;;;;5052323;28;20398;-57
2022/05/25 01:15:44;;;;;;;3.75;3.28;;;;;;;;;;5054420;28;20391;-55
2022/05/25 01:18:19;;;;;;;3.55;3.22;;;;;;;;;;5055186;28;20699;-55
2022/05/25 01:20:50;;;;;;;5.88;3.30;;;;;;;;;;5050523;28;20406;-57
2022/05/25 01:23:35;;;;;;;5.22;3.30;;;;;;;;;;5071339;28;20380;-57
2022/05/25 01:26:04;;;;;;;4.40;3.17;;;;;;;;;;5052925;28;20438;-56
2022/05/25 01:28:36;;;;;;;3.60;3.20;;;;;;;;;;5053305;28;20559;-55
2022/05/25 01:31:05;;;;;;;4.05;3.25;;;;;;;;;;5070532;28;20663;-58
2022/05/25 01:33:34;;;;;;;4.00;3.22;;;;;;;;;;5076087;28;20826;-56
2022/05/25 01:36:02;;;;;;;3.55;3.25;;;;;;;;;;5078178;28;20502;-56
2022/05/25 01:38:42;;;;;;;4.40;3.70;;;;;;;;;;5079339;28;20714;-54
2022/05/25 01:41:12;;;;;;;3.97;3.57;;;;;;;;;;5058333;28;20376;-57
2022/05/25 01:43:50;;;;;;;3.93;3.40;;;;;;;;;;5057666;28;20406;-56
2022/05/25 01:46:22;;;;;;;3.95;3.55;;;;;;;;;;5058498;28;20405;-58
2022/05/25 01:48:48;;;;;;;3.72;3.28;;;;;;;;;;5057723;28;20387;-56
2022/05/25 01:51:18;;;;;;;5.38;3.58;;;;;;;;;;5056550;28;20717;-57
2022/05/25 01:53:45;;;;;;;5.23;3.77;;;;;;;;;;5056977;28;20420;-58
2022/05/25 01:56:13;;;;;;;4.65;3.65;;;;;;;;;;5058554;28;20383;-57
2022/05/25 01:58:44;;;;;;;5.53;3.80;;;;;;;;;;5059905;28;20513;-58
2022/05/25 02:01:12;;;;;;;6.63;4.03;;;;;;;;;;5058960;28;20631;-55
2022/05/25 02:06:25;;;;;;;4.25;3.85;;;;;;;;;;5076046;28;20774;-57
2022/05/25 02:09:07;;;;;;;4.13;3.72;;;;;;;;;;5059811;28;20394;-57
2022/05/25 02:11:42;;;;;;;5.05;3.55;;;;;;;;;;5058756;28;21805;-57
2022/05/25 02:14:17;;;;;;;7.23;3.93;;;;;;;;;;5059326;28;20453;-57
2022/05/25 02:17:02;;;;;;;6.15;3.75;;;;;;;;;;5057419;28;20403;-55
2022/05/25 02:19:43;;;;;;;4.30;3.60;;;;;;;;;;5074955;28;20441;-53
2022/05/25 02:22:09;;;;;;;4.63;3.90;;;;;;;;;;5056647;28;20672;-56
2022/05/25 02:24:39;;;;;;;7.10;4.10;;;;;;;;;;5057111;28;20802;-53
2022/05/25 02:27:09;;;;;;;3.70;3.30;;;;;;;;;;5058315;28;20759;-56
2022/05/25 02:29:41;;;;;;;5.07;3.78;;;;;;;;;;5076050;28;20478;-56
2022/05/25 02:32:13;;;;;;;3.92;3.55;;;;;;;;;;5075864;28;20494;-58
2022/05/25 02:34:41;;;;;;;4.18;3.70;;;;;;;;;;5076650;28;20388;-57
2022/05/25 02:37:07;;;;;;;3.42;3.13;;;;;;;;;;5059720;28;20912;-56
2022/05/25 02:39:33;;;;;;;3.42;3.13;;;;;;;;;;5060192;28;20728;-58
2022/05/25 02:41:59;;;;;;;4.37;3.63;;;;;;;;;;5057298;28;20905;-55
2022/05/25 02:44:26;;;;;;;4.38;3.72;;;;;;;;;;5072280;28;20565;-57
2022/05/25 02:46:52;;;;;;;4.95;3.95;;;;;;;;;;5055066;28;20402;-58
2022/05/25 02:49:18;;;;;;;4.00;3.47;;;;;;;;;;5056038;28;20833;-55
2022/05/25 02:51:45;;;;;;;5.13;3.77;;;;;;;;;;5056265;28;20399;-58
2022/05/25 02:54:11;;;;;;;3.78;3.38;;;;;;;;;;5073418;28;20467;-55
2022/05/25 02:56:37;;;;;;;4.30;3.58;;;;;;;;;;5056079;28;20380;-57
2022/05/25 02:59:04;;;;;;;4.65;3.80;;;;;;;;;;5057673;28;20718;-57
2022/05/25 03:01:30;;;;;;;3.92;3.58;;;;;;;;;;5058420;28;20382;-55
2022/05/25 03:03:56;;;;;;;4.95;3.95;;;;;;;;;;5057251;28;20379;-57
2022/05/25 03:06:22;;;;;;;4.35;3.78;;;;;;;;;;5074291;28;20392;-57
2022/05/25 03:08:48;;;;;;;4.32;4.03;;;;;;;;;;5055247;28;20461;-56
2022/05/25 03:11:14;;;;;;;6.85;3.92;;;;;;;;;;5054716;28;20656;-53
2022/05/25 03:13:45;;;;;;;4.18;3.78;;;;;;;;;;5055323;28;20371;-57
2022/05/25 03:16:13;;;;;;;4.35;3.95;;;;;;;;;;5055389;28;20368;-58
2022/05/25 03:18:39;;;;;;;4.72;4.00;;;;;;;;;;5054453;28;20400;-56
2022/05/25 03:21:05;;;;;;;5.17;4.37;;;;;;;;;;5055245;28;20471;-58
2022/05/25 03:23:31;;;;;;;4.20;3.70;;;;;;;;;;5073713;28;20415;-57
2022/05/25 03:25:57;;;;;;;4.75;3.80;;;;;;;;;;5054358;28;20434;-57
2022/05/25 03:28:22;;;;;;;5.88;4.07;;;;;;;;;;5054542;28;20719;-57
2022/05/25 03:30:48;;;;;;;4.40;4.00;;;;;;;;;;5053526;28;20462;-52
2022/05/25 03:33:14;;;;;;;5.28;3.72;;;;;;;;;;5053440;28;20396;-58
2022/05/25 03:35:40;;;;;;;4.93;4.00;;;;;;;;;;5053063;28;20430;-57
2022/05/25 03:41:10;;;;;;;5.23;3.93;;;;;;;;;;5073127;28;20578;-55
2022/05/25 03:43:38;;;;;;;4.67;4.10;;;;;;;;;;5055566;28;20368;-58
2022/05/25 03:46:04;;;;;;;5.23;4.73;;;;;;;;;;5055038;28;20457;-57
2022/05/25 03:48:30;;;;;;;5.15;4.30;;;;;;;;;;5055556;28;20578;-57
2022/05/25 03:50:56;;;;;;;5.25;4.75;;;;;;;;;;5052945;28;20410;-56
2022/05/25 03:53:22;;;;;;;5.38;4.90;;;;;;;;;;5072001;28;20490;-57
2022/05/25 03:55:48;;;;;;;5.28;4.78;;;;;;;;;;5070656;28;20403;-58
2022/05/25 03:58:14;;;;;;;5.35;4.85;;;;;;;;;;5053973;28;20827;-56
2022/05/25 04:00:40;;;;;;;5.70;5.15;;;;;;;;;;5070781;28;20719;-56
2022/05/25 04:03:06;;;;;;;6.15;5.30;;;;;;;;;;5052074;28;20372;-58
2022/05/25 04:05:34;;;;;;;5.53;4.70;;;;;;;;;;5052073;28;20820;-58
2022/05/25 04:08:01;;;;;;;5.70;5.20;;;;;;;;;;5051296;28;20399;-56
2022/05/25 04:10:27;;;;;;;6.63;5.25;;;;;;;;;;5049790;28;20388;-58
2022/05/25 04:12:53;;;;;;;5.55;5.05;;;;;;;;;;5050987;28;20601;-55
2022/05/25 04:15:20;;;;;;;5.97;5.20;;;;;;;;;;5052647;28;20397;-57
2022/05/25 04:17:46;;;;;;;5.40;4.88;;;;;;;;;;5052571;28;20835;-55
2022/05/25 04:20:13;;;;;;;5.53;4.93;;;;;;;;;;5053128;28;20396;-58
2022/05/25 04:22:39;;;;;;;5.00;4.50;;;;;;;;;;5052717;28;20376;-54
2022/05/25 04:25:07;;;;;;;6.47;5.22;;;;;;;;;;5053553;28;20444;-58
2022/05/25 04:27:33;;;;;;;5.57;5.07;;;;;;;;;;5052345;28;20765;-54
2022/05/25 04:29:59;;;;;;;5.97;5.18;;;;;;;;;;5050271;28;20375;-55
2022/05/25 04:32:25;;;;;;;5.30;4.80;;;;;;;;;;5049649;28;20390;-59
2022/05/25 04:34:51;;;;;;;5.20;4.80;;;;;;;;;;5064957;28;20416;-57
2022/05/25 04:40:02;;;;;;;6.50;5.78;;;;;;;;;;5066454;28;20379;-58
2022/05/25 04:42:29;;;;;;;6.00;5.40;;;;;;;;;;5048058;28;20519;-56
2022/05/25 04:45:00;;;;;;;6.20;5.57;;;;;;;;;;5048937;28;20376;-55
2022/05/25 04:47:28;;;;;;;7.68;6.07;;;;;;;;;;5047828;28;20644;-57
2022/05/25 04:49:54;;;;;;;6.95;5.72;;;;;;;;;;5064311;28;20395;-56
2022/05/25 04:52:20;;;;;;;6.05;5.45;;;;;;;;;;5045676;28;20536;-56
2022/05/25 04:54:46;;;;;;;6.70;5.50;;;;;;;;;;5045793;28;20668;-58
2022/05/25 04:57:23;;;;;;;9.45;6.18;;;;;;;;;;5064394;28;20661;-58
2022/05/25 04:59:53;;;;;;;6.35;5.65;;;;;;;;;;5047628;28;20383;-54
2022/05/25 05:02:19;;;;;;;6.57;5.90;;;;;;;;;;5065981;28;20382;-55
2022/05/25 05:04:45;;;;;;;6.75;6.10;;;;;;;;;;5066639;28;20767;-57
2022/05/25 05:07:12;;;;;;;7.90;6.03;;;;;;;;;;5048210;28;20392;-56
2022/05/25 05:09:38;;;;;;;6.35;5.75;;;;;;;;;;5049957;28;20380;-55
2022/05/25 05:12:05;;;;;;;7.20;5.45;;;;;;;;;;5049726;28;20384;-56
2022/05/25 05:14:31;;;;;;;6.70;5.97;;;;;;;;;;5049352;28;20380;-55
2022/05/25 05:16:58;;;;;;;6.22;5.63;;;;;;;;;;5048991;28;20418;-57
2022/05/25 05:19:27;;;;;;;8.60;6.10;;;;;;;;;;5047657;28;20384;-57
2022/05/25 05:22:03;;;;;;;7.33;6.03;;;;;;;;;;5063590;28;20490;-58
2022/05/25 05:24:29;;;;;;;6.47;5.85;;;;;;;;;;5044825;28;20465;-58
2022/05/25 05:26:56;;;;;;;7.78;6.15;;;;;;;;;;5045074;28;20676;-58
2022/05/25 05:29:28;;;;;;;9.80;6.27;;;;;;;;;;5062385;28;20407;-58
2022/05/25 05:31:54;;;;;;;8.75;5.57;;;;;;;;;;5045131;28;20883;-58
2022/05/25 05:34:20;;;;;;;6.10;5.50;;;;;;;;;;5045787;28;20555;-57
2022/05/25 05:37:04;;;;;;;6.80;5.75;;;;;;;;;;5043920;28;20419;-56
2022/05/25 05:39:32;;;;;;;6.07;5.45;;;;;;;;;;5063341;28;20667;-56
2022/05/25 05:42:05;;;;;;;6.50;4.83;;;;;;;;;;5046370;28;20390;-58
2022/05/25 05:44:32;;;;;;;6.53;5.75;;;;;;;;;;5046184;28;20387;-56
2022/05/25 05:47:00;;;;;;;6.35;5.22;;;;;;;;;;5048135;28;20380;-58
2022/05/25 05:49:26;;;;;;;8.25;5.57;;;;;;;;;;5064552;28;20372;-59
2022/05/25 05:51:52;;;;;;;6.43;5.30;;;;;;;;;;5063121;28;20799;-57
2022/05/25 05:54:19;;;;;;;8.88;5.18;;;;;;;;;;5044154;28;20424;-57
2022/05/25 05:56:45;;;;;;;6.78;4.95;;;;;;;;;;5044110;28;20390;-53
2022/05/25 05:59:11;;;;;;;5.70;4.60;;;;;;;;;;5045391;28;20679;-52
2022/05/25 06:01:37;;;;;;;6.03;4.78;;;;;;;;;;5044830;28;20680;-57
2022/05/25 06:04:03;;;;;;;7.30;4.40;;;;;;;;;;5044889;28;20779;-56
2022/05/25 06:06:29;;;;;;;7.22;4.70;;;;;;;;;;5046211;28;20394;-56
2022/05/25 06:08:56;;;;;;;6.20;4.70;;;;;;;;;;5044154;28;20460;-55
2022/05/25 06:11:23;;;;;;;4.65;4.20;;;;;;;;;;5041855;28;20486;-57
2022/05/25 06:13:49;;;;;;;5.75;4.20;;;;;;;;;;5040568;28;20838;-52
2022/05/25 06:21:45;;;;;;;5.72;3.92;;;;;;;;;;5060809;28;20470;-57
2022/05/25 06:24:12;;;;;;;3.90;3.30;;;;;;;;;;5059837;28;20995;-52
2022/05/25 06:26:38;;;;;;;3.45;2.95;;;;;;;;;;5046009;28;20446;-56
2022/05/25 06:29:04;;;;;;;4.00;3.13;;;;;;;;;;5046164;28;20376;-56
2022/05/25 06:31:31;;;;;;;5.82;3.83;;;;;;;;;;5062549;28;20755;-54
2022/05/25 06:33:57;;;;;;;6.38;3.40;;;;;;;;;;5043909;28;20581;-57
2022/05/25 06:36:25;;;;;;;4.43;3.20;;;;;;;;;;5044185;28;20459;-55
2022/05/25 06:38:52;;;;;;;3.30;3.00;;;;;;;;;;5064169;28;20550;-57
2022/05/25 06:41:18;;;;;;;5.15;3.08;;;;;;;;;;5047275;28;20463;-55
2022/05/25 06:43:44;;;;;;;5.43;3.43;;;;;;;;;;5047145;28;20750;-55
2022/05/25 06:46:11;;;;;;;5.68;3.15;;;;;;;;;;5048150;28;20842;-53
2022/05/25 06:48:38;;;;;;;4.72;3.17;;;;;;;;;;5062883;28;20807;-55
2022/05/25 06:51:14;;;;;;;6.10;3.50;;;;;;;;;;5044179;28;20477;-55
2022/05/25 06:53:40;;;;;;;4.97;3.47;;;;;;;;;;5043828;28;20664;-53
2022/05/25 06:56:06;;;;;;;3.80;2.87;;;;;;;;;;5045161;28;20386;-55
2022/05/25 06:58:33;;;;;;;4.17;3.33;;;;;;;;;;5043634;28;20407;-57
2022/05/25 07:00:59;;;;;;;5.22;3.03;;;;;;;;;;5041402;28;20450;-56
2022/05/25 07:03:25;;;;;;;5.53;3.38;;;;;;;;;;5063408;28;20422;-55
2022/05/25 07:05:51;;;;;;;7.65;3.22;;;;;;;;;;5044931;28;20399;-57
2022/05/25 07:08:17;;;;;;;4.75;2.95;;;;;;;;;;5045426;28;20387;-58
2022/05/25 07:10:45;;;;;;;5.32;3.10;;;;;;;;;;5046658;28;20453;-57
2022/05/25 07:13:12;;;;;;;2.80;2.60;;;;;;;;;;5046416;28;20379;-56
2022/05/25 07:15:38;;;;;;;4.80;3.30;;;;;;;;;;5047512;28;20659;-57
2022/05/25 07:18:04;;;;;;;4.20;3.50;;;;;;;;;;5046698;28;20807;-55
2022/05/25 07:20:30;;;;;;;5.30;3.22;;;;;;;;;;5047452;28;20430;-55
2022/05/25 07:22:56;;;;;;;4.90;2.53;;;;;;;;;;5045443;28;20674;-57
2022/05/25 07:25:22;;;;;;;3.10;2.80;;;;;;;;;;5062016;28;20438;-58
2022/05/25 07:27:48;;;;;;;3.77;2.67;;;;;;;;;;5044149;28;20553;-53
2022/05/25 07:30:16;;;;;;;3.70;2.90;;;;;;;;;;5059361;28;20860;-55
2022/05/25 07:32:42;;;;;;;3.22;2.65;;;;;;;;;;5063018;28;20767;-55
2022/05/25 07:35:09;;;;;;;5.87;3.37;;;;;;;;;;5061413;28;20661;-57
2022/05/25 07:37:38;;;;;;;3.83;3.08;;;;;;;;;;5043692;28;20921;-54
2022/05/25 07:40:06;;;;;;;3.90;2.40;;;;;;;;;;5045436;28;20387;-55
2022/05/25 07:42:32;;;;;;;4.80;2.27;;;;;;;;;;5045598;28;20452;-56
2022/05/25 07:45:00;;;;;;;4.13;2.58;;;;;;;;;;5045128;28;20485;-58
2022/05/25 07:47:30;;;;;;;3.77;2.43;;;;;;;;;;5044229;28;20399;-56
2022/05/25 07:49:56;;;;;;;4.30;2.63;;;;;;;;;;5062219;28;20391;-57
2022/05/25 07:52:23;;;;;;;3.33;2.72;;;;;;;;;;5043925;28;20424;-58
2022/05/25 07:54:49;;;;;;;4.85;2.78;;;;;;;;;;5044926;28;20416;-57
2022/05/25 07:57:15;;;;;;;3.40;2.30;;;;;;;;;;5064052;28;20476;-56
2022/05/25 07:59:42;;;;;;;2.63;2.05;;;;;;;;;;5044444;28;20380;-58
2022/05/25 08:07:45;;;;;;;3.28;2.40;;;;;;;;;;5059642;28;20401;-53
2022/05/25 08:10:14;;;;;;;3.47;2.03;;;;;;;;;;5040312;28;20818;-55
2022/05/25 08:12:41;;;;;;;2.42;2.20;;;;;;;;;;5038606;28;20827;-58
2022/05/25 08:15:08;;;;;;;3.25;2.30;;;;;;;;;;5038189;28;20668;-58
2022/05/25 08:17:34;;;;;;;5.23;2.87;;;;;;;;;;5038250;28;20742;-57
2022/05/25 08:20:00;;;;;;;5.15;2.45;;;;;;;;;;5038242;28;20434;-55
2022/05/25 08:22:26;;;;;;;3.10;2.33;;;;;;;;;;5036770;28;20382;-57
2022/05/25 08:24:53;;;;;;;3.78;2.70;;;;;;;;;;5053481;28;20376;-57
2022/05/25 08:27:19;;;;;;;2.70;2.40;;;;;;;;;;5037435;28;20580;-58
2022/05/25 08:29:45;;;;;;;3.10;2.37;;;;;;;;;;5037061;28;20818;-56
2022/05/25 08:32:11;;;;;;;4.03;2.30;;;;;;;;;;5035015;28;20761;-55
2022/05/25 08:34:37;;;;;;;4.93;2.17;;;;;;;;;;5054000;28;20465;-55
2022/05/25 08:37:04;;;;;;;3.27;2.00;;;;;;;;;;5056521;28;20665;-58
2022/05/25 08:39:30;;;;;;;3.08;1.92;;;;;;;;;;5039914;28;20674;-55
2022/05/25 08:41:59;;;;;;;2.85;1.90;;;;;;;;;;5056727;28;20414;-57
2022/05/25 08:44:25;;;;;;;2.05;1.80;;;;;;;;;;5048251;28;20411;-55
2022/05/25 08:46:56;;;;;;;3.10;2.20;;;;;;;;;;5047840;28;20463;-55
2022/05/25 08:49:23;;;;;;;3.53;1.95;;;;;;;;;;5059346;28;20661;-58
2022/05/25 08:51:51;;;;;;;2.70;1.80;;;;;;;;;;5043656;28;20399;-55
2022/05/25 08:54:18;;;;;;;3.50;1.70;;;;;;;;;;5043235;28;20419;-58
2022/05/25 08:56:50;;;;;;;2.30;1.63;;;;;;;;;;5047802;28;20380;-56
2022/05/25 08:59:22;;;;;;;3.42;1.50;;;;;;;;;;5058140;28;20562;-57
2022/05/25 09:01:50;;;;;;;3.30;1.70;;;;;;;;;;5039929;28;20481;-55
2022/05/25 09:04:35;;;;;;;1.90;1.60;;;;;;;;;;5040134;28;20418;-58
2022/05/25 09:07:01;;;;;;;3.28;1.60;;;;;;;;;;5042180;28;20744;-64
2022/05/25 09:09:37;;;;;;;2.45;1.60;;;;;;;;;;5049246;28;20482;-64
2022/05/25 09:12:06;;;;;;;2.40;1.50;;;;;;;;;;5068018;28;20372;-63
2022/05/25 09:14:38;;;;;;;4.18;1.60;;;;;;;;;;5049835;28;20453;-64
2022/05/25 09:17:12;;;;;;;3.08;1.70;;;;;;;;;;5050684;28;20631;-64
2022/05/25 09:19:40;;;;;;;3.30;1.77;;;;;;;;;;5051488;28;20395;-64
2022/05/25 09:22:08;;;;;;;2.55;1.80;;;;;;;;;;5050952;28;20388;-64
2022/05/25 09:24:35;;;;;;;2.90;2.05;;;;;;;;;;5049852;28;20823;-64
2022/05/25 09:27:03;;;;;;;2.53;1.40;;;;;;;;;;5049764;28;20383;-64
2022/05/25 09:29:29;;;;;;;2.30;1.60;;;;;;;;;;5066164;28;20384;-64
2022/05/25 09:32:10;;;;;;;2.63;1.63;;;;;;;;;;5049690;28;20423;-64
2022/05/25 09:34:42;;;;;;;4.22;1.77;;;;;;;;;;5048128;28;20806;-65
2022/05/25 09:37:13;;;;;;;2.57;1.40;;;;;;;;;;5047937;28;20491;-64
2022/05/25 09:39:41;;;;;;;2.30;1.70;;;;;;;;;;5068076;28;20375;-55
2022/05/25 09:42:11;;;;;;;2.50;1.88;;;;;;;;;;5049763;28;20463;-57
2022/05/25 09:44:38;;;;;;;2.22;1.70;;;;;;;;;;5049020;28;20429;-60
2022/05/25 09:47:08;;;;;;;2.20;1.83;;;;;;;;;;5066972;28;20379;-57
2022/05/25 09:49:34;;;;;;;2.47;1.50;;;;;;;;;;5049386;28;20898;-56
2022/05/25 09:52:03;;;;;;;2.75;1.73;;;;;;;;;;5050100;28;20387;-57
2022/05/25 09:54:40;;;;;;;5.65;2.00;;;;;;;;;;5054505;28;20375;-53
2022/05/25 09:57:08;;;;;;;3.35;1.63;;;;;;;;;;5072890;28;20461;-55
2022/05/25 09:59:36;;;;;;;3.22;2.10;;;;;;;;;;5070567;28;20386;-57
2022/05/25 10:02:09;;;;;;;4.72;2.15;;;;;;;;;;5069433;28;20440;-55
2022/05/25 10:04:52;;;;;;;3.63;1.90;;;;;;;;;;5048767;28;20395;-56
2022/05/25 10:07:38;;;;;;;3.13;1.80;;;;;;;;;;5045260;28;20379;-55
2022/05/25 10:10:06;;;;;;;2.70;1.70;;;;;;;;;;5062793;28;21044;-55
2022/05/25 10:12:34;;;;;;;3.83;1.80;;;;;;;;;;5045372;28;20477;-55
2022/05/25 10:15:02;;;;;;;2.70;2.00;;;;;;;;;;5047784;28;20389;-56
2022/05/25 10:17:33;;;;;;;2.63;1.40;;;;;;;;;;5049974;28;20438;-57
2022/05/25 10:19:59;;;;;;;1.83;1.10;;;;;;;;;;5042655;28;20403;-56
2022/05/25 10:22:37;;;;;;;2.15;1.30;;;;;;;;;;5052581;28;20376;-52
2022/05/25 10:25:06;;;;;;;1.40;1.30;;;;;;;;;;5053448;28;20869;-57
2022/05/25 10:27:43;;;;;;;2.30;1.20;;;;;;;;;;5052484;28;20877;-55
2022/05/25 10:38:41;;;;;;;1.92;1.27;;;;;;;;;;5063205;28;20407;-56
2022/05/25 10:44:06;;;;;;;5.05;1.27;;;;;;;;;;5067344;28;20383;-57
2022/05/25 10:46:32;;;;;;;4.30;1.60;;;;;;;;;;5051674;28;20466;-53
2022/05/25 10:49:02;;;;;;;2.85;1.15;;;;;;;;;;5055319;28;20474;-56
2022/05/25 10:51:31;;;;;;;2.08;1.08;;;;;;;;;;5041113;28;20795;-56
2022/05/25 10:56:48;;;;;;;1.48;1.10;;;;;;;;;;5055809;28;20412;-54
2022/05/25 10:59:20;;;;;;;1.42;1.17;;;;;;;;;;5038574;28;20437;-57
2022/05/25 11:01:54;;;;;;;2.20;1.10;;;;;;;;;;5037248;28;20399;-57
2022/05/25 11:04:23;;;;;;;2.30;1.00;;;;;;;;;;5055191;28;20448;-54
2022/05/25 11:06:59;;;;;;;2.33;1.08;;;;;;;;;;5049224;28;20998;-56
2022/05/25 11:09:43;;;;;;;1.42;1.00;;;;;;;;;;5067851;28;20450;-57
2022/05/25 11:12:36;;;;;;;4.32;1.33;;;;;;;;;;5067308;28;20786;-62
2022/05/25 11:15:20;;;;;;;3.58;1.40;;;;;;;;;;5063268;28;20474;-62
2022/05/25 11:17:55;;;;;;;3.90;1.35;;;;;;;;;;5049793;28;20411;-63
2022/05/25 11:21:00;;;;;;;1.17;1.00;;;;;;;;;;5068293;28;20387;-62
2022/05/25 11:23:37;;;;;;;3.58;1.20;;;;;;;;;;4966503;28;20824;-63
2022/05/25 11:26:21;;;;;;;2.70;1.08;;;;;;;;;;4966734;28;20820;-62
2022/05/25 11:28:56;;;;;;;1.67;1.30;;;;;;;;;;5018876;28;20947;-63
2022/05/25 11:31:34;;;;;;;2.00;1.00;;;;;;;;;;5051205;28;20395;-63
2022/05/25 11:34:14;;;;;;;1.92;1.23;;;;;;;;;;5051126;28;20384;-63
2022/05/25 11:36:59;;;;;;;1.42;0.93;;;;;;;;;;5050936;28;20427;-63
2022/05/25 11:39:37;;;;;;;6.88;1.00;;;;;;;;;;5049206;28;20396;-63
2022/05/25 11:42:21;;;;;;;2.10;1.13;;;;;;;;;;5048734;28;20630;-62
2022/05/25 11:45:03;;;;;;;1.60;0.80;;;;;;;;;;5049438;28;20434;-63
2022/05/25 11:47:38;;;;;;;4.40;0.90;;;;;;;;;;5049127;28;20379;-63
2022/05/25 11:50:04;;;;;;;2.60;1.00;;;;;;;;;;5049975;28;20400;-63
2022/05/25 11:52:31;;;;;;;1.17;0.80;;;;;;;;;;5067274;28;20384;-63
2022/05/25 11:55:04;;;;;;;0.77;0.77;;;;;;;;;;5067115;28;20406;-63
2022/05/25 11:57:44;;;;;;;1.58;0.73;;;;;;;;;;5048696;28;20462;-64
2022/05/25 12:00:33;;;;;;;1.50;0.80;;;;;;;;;;5048090;28;20439;-64
2022/05/25 12:03:25;;;;;;;1.42;1.20;;;;;;;;;;5032116;28;20380;-63
2022/05/25 12:05:54;;;;;;;1.48;0.90;;;;;;;;;;5063323;28;20486;-64
2022/05/25 12:08:23;;;;;;;1.40;0.70;;;;;;;;;;5063592;28;20517;-63
2022/05/25 12:11:00;;;;;;;2.33;0.80;;;;;;;;;;5061941;28;20376;-63
2022/05/25 12:13:42;;;;;;;1.75;0.90;;;;;;;;;;5046234;28;20384;-63
2022/05/25 12:16:21;;;;;;;1.40;1.00;;;;;;;;;;5045809;28;20471;-64
2022/05/25 12:18:47;;;;;;;1.10;1.00;;;;;;;;;;5064144;28;20465;-63
2022/05/25 12:21:15;;;;;;;2.40;1.00;;;;;;;;;;5045153;28;20400;-63
2022/05/25 12:23:43;;;;;;;1.48;0.80;;;;;;;;;;5046127;28;20384;-63
2022/05/25 12:26:14;;;;;;;1.40;0.88;;;;;;;;;;5044165;28;20380;-63
2022/05/25 12:28:41;;;;;;;1.63;0.90;;;;;;;;;;5061745;28;20367;-64
2022/05/25 12:31:15;;;;;;;4.00;1.10;;;;;;;;;;5062828;28;20394;-56
2022/05/25 12:33:42;;;;;;;0.87;0.80;;;;;;;;;;5046059;28;20442;-57
2022/05/25 12:36:10;;;;;;;2.10;0.93;;;;;;;;;;5045951;28;20941;-58
2022/05/25 12:38:37;;;;;;;2.60;0.93;;;;;;;;;;5048836;28;20501;-58
2022/05/25 12:41:31;;;;;;;2.13;0.85;;;;;;;;;;5047205;28;20384;-55
2022/05/25 12:43:58;;;;;;;2.40;0.80;;;;;;;;;;5061834;28;20395;-54
2022/05/25 12:49:32;;;;;;;4.32;0.98;;;;;;;;;;5064893;28;20395;-55
2022/05/25 12:51:58;;;;;;;3.85;1.08;;;;;;;;;;5046223;28;20396;-57
2022/05/25 12:54:25;;;;;;;2.33;0.90;;;;;;;;;;5063349;28;20465;-52
2022/05/25 12:56:52;;;;;;;1.25;0.77;;;;;;;;;;5063791;28;20411;-55
2022/05/25 12:59:33;;;;;;;1.77;0.80;;;;;;;;;;5046928;28;20755;-59
2022/05/25 13:02:17;;;;;;;1.52;0.80;;;;;;;;;;5040865;28;20372;-56
2022/05/25 13:04:47;;;;;;;2.55;0.90;;;;;;;;;;5050323;28;20464;-56
2022/05/25 13:07:49;;;;;;;1.25;0.80;;;;;;;;;;5066647;28;20444;-54
2022/05/25 13:10:33;;;;;;;1.50;0.70;;;;;;;;;;4965440;28;20830;-53
2022/05/25 13:13:18;;;;;;;1.50;0.80;;;;;;;;;;5059189;28;20430;-53
2022/05/25 13:15:44;;;;;;;2.05;0.60;;;;;;;;;;5065235;28;20816;-56
2022/05/25 13:18:30;;;;;;;0.90;0.55;;;;;;;;;;5046330;28;20407;-53
2022/05/25 13:20:56;;;;;;;2.28;0.60;;;;;;;;;;5046484;28;20717;-54
2022/05/25 13:23:41;;;;;;;1.40;0.80;;;;;;;;;;5045402;28;20383;-56
2022/05/25 13:26:08;;;;;;;1.08;0.70;;;;;;;;;;5044093;28;20371;-56
2022/05/25 13:28:40;;;;;;;2.17;0.82;;;;;;;;;;5061708;28;20383;-56
2022/05/25 13:31:31;;;;;;;3.03;0.82;;;;;;;;;;5045491;28;20394;-56
2022/05/25 13:33:58;;;;;;;2.78;0.80;;;;;;;;;;5048395;28;20384;-58
2022/05/25 13:36:25;;;;;;;3.97;0.93;;;;;;;;;;5064444;28;20403;-55
2022/05/25 13:38:51;;;;;;;1.35;0.70;;;;;;;;;;5046797;28;20731;-55
2022/05/25 13:41:20;;;;;;;2.90;0.70;;;;;;;;;;5049458;28;20380;-54
2022/05/25 13:43:48;;;;;;;4.38;0.90;;;;;;;;;;5051184;28;20467;-58
2022/05/25 13:46:35;;;;;;;1.25;0.80;;;;;;;;;;5048602;28;20529;-56
2022/05/25 13:49:01;;;;;;;2.00;0.85;;;;;;;;;;5045670;28;20482;-58
2022/05/25 13:51:27;;;;;;;2.63;0.90;;;;;;;;;;5047302;28;20392;-55
2022/05/25 13:53:53;;;;;;;2.20;0.70;;;;;;;;;;5046838;28;20647;-57
2022/05/25 13:56:21;;;;;;;1.83;0.80;;;;;;;;;;5047234;28;20380;-54
2022/05/25 13:58:49;;;;;;;1.20;0.73;;;;;;;;;;5047115;28;20493;-56
2022/05/25 14:01:21;;;;;;;1.13;0.88;;;;;;;;;;5047310;28;20390;-57
2022/05/25 14:03:50;;;;;;;2.10;0.80;;;;;;;;;;5066109;28;20406;-57
2022/05/25 14:06:16;;;;;;;2.55;0.80;;;;;;;;;;5048665;28;20497;-55
2022/05/25 14:11:33;;;;;;;3.45;0.82;;;;;;;;;;5064865;28;20818;-57
2022/05/25 14:13:59;;;;;;;0.90;0.80;;;;;;;;;;5047774;28;20383;-56
2022/05/25 14:16:27;;;;;;;2.90;0.80;;;;;;;;;;5048531;28;21009;-56
2022/05/25 14:18:56;;;;;;;1.77;0.80;;;;;;;;;;5047692;28;20506;-55
2022/05/25 14:21:28;;;;;;;2.67;0.80;;;;;;;;;;5048163;28;21202;-56
2022/05/25 14:23:54;;;;;;;2.10;0.80;;;;;;;;;;5066444;28;20392;-57
2022/05/25 14:26:25;;;;;;;2.63;1.08;;;;;;;;;;5049835;28;20383;-58
2022/05/25 14:28:51;;;;;;;2.27;0.80;;;;;;;;;;5067502;28;20412;-58
2022/05/25 14:31:19;;;;;;;1.98;0.90;;;;;;;;;;5047901;28;20382;-57
2022/05/25 14:33:46;;;;;;;2.08;1.00;;;;;;;;;;5066909;28;20478;-53
2022/05/25 14:36:15;;;;;;;1.58;0.90;;;;;;;;;;5066446;28;20518;-57
2022/05/25 14:38:43;;;;;;;1.30;0.93;;;;;;;;;;5050357;28;20403;-58
2022/05/25 14:41:30;;;;;;;4.20;1.00;;;;;;;;;;5052702;28;20414;-56
2022/05/25 14:43:56;;;;;;;2.92;0.80;;;;;;;;;;5036357;28;20926;-57
2022/05/25 14:46:26;;;;;;;2.63;0.90;;;;;;;;;;5055216;28;20390;-56
2022/05/25 14:48:53;;;;;;;2.17;0.80;;;;;;;;;;5055529;28;21018;-57
2022/05/25 14:51:21;;;;;;;1.02;0.70;;;;;;;;;;5054086;28;20469;-57
2022/05/25 14:53:47;;;;;;;3.07;0.93;;;;;;;;;;5053605;28;21040;-57
2022/05/25 14:56:20;;;;;;;3.40;0.82;;;;;;;;;;5050280;28;20771;-57
2022/05/25 14:58:48;;;;;;;2.55;0.88;;;;;;;;;;5064623;28;20849;-57
2022/05/25 15:01:16;;;;;;;2.95;0.70;;;;;;;;;;5046884;28;20745;-57
2022/05/25 15:03:46;;;;;;;1.30;0.70;;;;;;;;;;5044377;28;20593;-58
2022/05/25 15:06:25;;;;;;;1.38;0.80;;;;;;;;;;5048244;28;20595;-57
2022/05/25 15:08:53;;;;;;;2.80;1.13;;;;;;;;;;5049131;28;20651;-57
2022/05/25 15:11:43;;;;;;;1.25;0.65;;;;;;;;;;5048653;28;20376;-55
2022/05/25 15:19:48;;;;;;;2.28;1.00;;;;;;;;;;5065757;28;20366;-53
2022/05/25 15:22:16;;;;;;;1.73;0.88;;;;;;;;;;5047007;28;20429;-57
2022/05/25 15:24:43;;;;;;;1.40;0.80;;;;;;;;;;5046073;28;20471;-57
2022/05/25 15:27:21;;;;;;;0.93;0.80;;;;;;;;;;5063965;28;20467;-57
2022/05/25 15:29:54;;;;;;;2.50;0.70;;;;;;;;;;5044263;28;20376;-57
2022/05/25 15:32:20;;;;;;;2.53;0.77;;;;;;;;;;5063483;28;20372;-55
2022/05/25 15:34:46;;;;;;;1.20;0.70;;;;;;;;;;5045580;28;20512;-57
2022/05/25 15:37:33;;;;;;;2.57;0.80;;;;;;;;;;5045622;28;20387;-58
2022/05/25 15:39:59;;;;;;;5.30;0.77;;;;;;;;;;5045505;28;20375;-57
2022/05/25 15:42:25;;;;;;;2.35;0.73;;;;;;;;;;5045065;28;20407;-57
2022/05/25 15:44:51;;;;;;;2.00;0.90;;;;;;;;;;5061252;28;20534;-55